sensor_id;sensor_type;location;lat;lon;timestamp;pressure;altitude;pressure_sealevel;temperature;humidity
39897;BME280;25567;48.276;14.242;2023-02-19T00:01:47;98725.34;;;10.58;91.20
39897;BME280;25567;48.276;14.242;2023-02-19T00:04:18;98719.81;;;10.59;91.56
39897;BME280;25567;48.276;14.242;2023-02-19T00:06:48;98726.59;;;10.55;91.74
39897;BME280;25567;48.276;14.242;2023-02-19T00:09:17;98721.50;;;10.54;92.30
39897;BME280;25567;48.276;14.242;2023-02-19T00:11:47;98721.22;;;10.43;92.97
39897;BME280;25567;48.276;14.242;2023-02-19T00:14:19;98722.47;;;10.41;93.46
39897;BME280;25567;48.276;14.242;2023-02-19T00:16:48;98724.78;;;10.30;94.15
39897;BME280;25567;48.276;14.242;2023-02-19T00:19:18;98715.88;;;10.25;95.60
39897;BME280;25567;48.276;14.242;2023-02-19T00:21:50;98717.13;;;10.22;95.48
39897;BME280;25567;48.276;14.242;2023-02-19T00:24:19;98713.34;;;10.11;96.60
39897;BME280;25567;48.276;14.242;2023-02-19T00:26:48;98712.78;;;10.09;97.12
39897;BME280;25567;48.276;14.242;2023-02-19T00:29:18;98709.59;;;10.00;97.78
39897;BME280;25567;48.276;14.242;2023-02-19T00:31:47;98714.44;;;10.04;97.03
39897;BME280;25567;48.276;14.242;2023-02-19T00:34:16;98716.22;;;10.10;97.29
39897;BME280;25567;48.276;14.242;2023-02-19T00:36:44;98719.16;;;10.01;97.66
39897;BME280;25567;48.276;14.242;2023-02-19T00:39:14;98714.38;;;10.10;97.18
39897;BME280;25567;48.276;14.242;2023-02-19T00:41:42;98717.03;;;10.10;97.31
39897;BME280;25567;48.276;14.242;2023-02-19T00:44:12;98711.56;;;10.05;98.16
39897;BME280;25567;48.276;14.242;2023-02-19T00:46:44;98710.03;;;9.97;98.56
39897;BME280;25567;48.276;14.242;2023-02-19T00:49:16;98712.88;;;9.96;98.69
39897;BME280;25567;48.276;14.242;2023-02-19T00:51:45;98712.50;;;9.92;99.68
39897;BME280;25567;48.276;14.242;2023-02-19T00:54:13;98710.88;;;9.91;100.00
39897;BME280;25567;48.276;14.242;2023-02-19T00:56:40;98699.44;;;9.97;100.00
39897;BME280;25567;48.276;14.242;2023-02-19T00:59:09;98703.25;;;10.01;100.00
39897;BME280;25567;48.276;14.242;2023-02-19T01:01:37;98697.41;;;9.93;100.00
39897;BME280;25567;48.276;14.242;2023-02-19T01:04:05;98700.13;;;9.86;100.00
39897;BME280;25567;48.276;14.242;2023-02-19T01:06:34;98694.88;;;9.79;100.00
39897;BME280;25567;48.276;14.242;2023-02-19T01:09:03;98699.75;;;9.82;100.00
39897;BME280;25567;48.276;14.242;2023-02-19T01:11:31;98692.47;;;9.78;100.00
39897;BME280;25567;48.276;14.242;2023-02-19T01:14:00;98688.63;;;9.74;100.00
39897;BME280;25567;48.276;14.242;2023-02-19T01:16:28;98689.88;;;9.71;100.00
39897;BME280;25567;48.276;14.242;2023-02-19T01:18:57;98693.53;;;9.70;100.00
39897;BME280;25567;48.276;14.242;2023-02-19T01:21:27;98685.22;;;9.66;100.00
39897;BME280;25567;48.276;14.242;2023-02-19T01:23:57;98677.53;;;9.58;100.00
39897;BME280;25567;48.276;14.242;2023-02-19T01:26:29;98672.41;;;9.63;100.00
39897;BME280;25567;48.276;14.242;2023-02-19T01:28:59;98670.91;;;9.49;100.00
39897;BME280;25567;48.276;14.242;2023-02-19T01:31:29;98676.94;;;9.56;100.00
39897;BME280;25567;48.276;14.242;2023-02-19T01:33:58;98663.63;;;9.44;100.00
39897;BME280;25567;48.276;14.242;2023-02-19T01:36:28;98664.84;;;9.42;100.00
39897;BME280;25567;48.276;14.242;2023-02-19T01:38:59;98657.00;;;9.28;100.00
39897;BME280;25567;48.276;14.242;2023-02-19T01:41:33;98650.09;;;9.27;100.00
39897;BME280;25567;48.276;14.242;2023-02-19T01:46:32;98640.31;;;9.28;100.00
39897;BME280;25567;48.276;14.242;2023-02-19T01:49:07;98632.81;;;9.25;100.00
39897;BME280;25567;48.276;14.242;2023-02-19T01:51:41;98641.09;;;9.28;100.00
39897;BME280;25567;48.276;14.242;2023-02-19T01:54:12;98637.50;;;9.23;100.00
39897;BME280;25567;48.276;14.242;2023-02-19T01:56:43;98633.81;;;9.24;100.00
39897;BME280;25567;48.276;14.242;2023-02-19T01:59:12;98631.13;;;9.30;100.00
39897;BME280;25567;48.276;14.242;2023-02-19T02:01:41;98626.31;;;9.21;100.00
39897;BME280;25567;48.276;14.242;2023-02-19T02:04:11;98630.38;;;9.23;100.00
39897;BME280;25567;48.276;14.242;2023-02-19T02:06:48;98628.75;;;9.22;100.00
39897;BME280;25567;48.276;14.242;2023-02-19T02:09:19;98622.28;;;9.18;100.00
39897;BME280;25567;48.276;14.242;2023-02-19T02:12:04;98611.31;;;9.14;100.00
39897;BME280;25567;48.276;14.242;2023-02-19T02:14:35;98606.28;;;9.06;100.00
39897;BME280;25567;48.276;14.242;2023-02-19T02:17:15;98614.38;;;9.11;100.00
39897;BME280;25567;48.276;14.242;2023-02-19T02:22:37;98608.66;;;9.14;100.00
39897;BME280;25567;48.276;14.242;2023-02-19T02:30:58;98600.94;;;9.13;100.00
39897;BME280;25567;48.276;14.242;2023-02-19T02:36:21;98592.94;;;9.20;100.00
39897;BME280;25567;48.276;14.242;2023-02-19T02:38:50;98586.84;;;9.19;100.00
39897;BME280;25567;48.276;14.242;2023-02-19T02:41:20;98594.97;;;9.17;100.00
39897;BME280;25567;48.276;14.242;2023-02-19T02:43:50;98584.84;;;9.14;100.00
39897;BME280;25567;48.276;14.242;2023-02-19T02:46:23;98582.56;;;9.18;100.00
39897;BME280;25567;48.276;14.242;2023-02-19T02:51:28;98577.13;;;9.13;100.00
39897;BME280;25567;48.276;14.242;2023-02-19T02:56:43;98575.75;;;9.04;100.00
39897;BME280;25567;48.276;14.242;2023-02-19T02:59:15;98578.47;;;8.97;100.00
39897;BME280;25567;48.276;14.242;2023-02-19T03:01:48;98575.00;;;8.96;100.00
39897;BME280;25567;48.276;14.242;2023-02-19T03:04:43;98572.34;;;8.96;100.00
39897;BME280;25567;48.276;14.242;2023-02-19T03:07:33;98572.78;;;8.93;100.00
39897;BME280;25567;48.276;14.242;2023-02-19T03:10:04;98570.34;;;8.92;100.00
39897;BME280;25567;48.276;14.242;2023-02-19T03:12:36;98576.66;;;8.91;100.00
39897;BME280;25567;48.276;14.242;2023-02-19T03:15:22;98567.50;;;8.93;100.00
39897;BME280;25567;48.276;14.242;2023-02-19T03:18:10;98565.28;;;8.90;100.00
39897;BME280;25567;48.276;14.242;2023-02-19T03:20:57;98557.72;;;8.94;100.00
39897;BME280;25567;48.276;14.242;2023-02-19T03:23:27;98560.16;;;8.95;100.00
39897;BME280;25567;48.276;14.242;2023-02-19T03:26:18;98561.75;;;8.96;100.00
39897;BME280;25567;48.276;14.242;2023-02-19T03:28:49;98559.38;;;8.88;100.00
39897;BME280;25567;48.276;14.242;2023-02-19T03:31:37;98556.09;;;8.93;100.00
39897;BME280;25567;48.276;14.242;2023-02-19T03:34:11;98550.88;;;8.86;100.00
39897;BME280;25567;48.276;14.242;2023-02-19T03:36:45;98558.97;;;8.91;100.00
39897;BME280;25567;48.276;14.242;2023-02-19T03:39:19;98550.66;;;8.88;100.00
39897;BME280;25567;48.276;14.242;2023-02-19T03:44:48;98544.16;;;8.83;100.00
39897;BME280;25567;48.276;14.242;2023-02-19T03:50:22;98538.50;;;8.80;100.00
39897;BME280;25567;48.276;14.242;2023-02-19T03:55:49;98548.91;;;8.75;100.00
39897;BME280;25567;48.276;14.242;2023-02-19T03:58:32;98544.84;;;8.72;100.00
39897;BME280;25567;48.276;14.242;2023-02-19T04:01:08;98553.41;;;8.74;100.00
39897;BME280;25567;48.276;14.242;2023-02-19T04:03:47;98545.50;;;8.67;100.00
39897;BME280;25567;48.276;14.242;2023-02-19T04:06:24;98543.25;;;8.64;100.00
39897;BME280;25567;48.276;14.242;2023-02-19T04:08:57;98546.53;;;8.66;100.00
39897;BME280;25567;48.276;14.242;2023-02-19T04:11:26;98540.75;;;8.76;100.00
39897;BME280;25567;48.276;14.242;2023-02-19T04:14:06;98549.28;;;8.78;100.00
39897;BME280;25567;48.276;14.242;2023-02-19T04:16:39;98537.13;;;8.71;100.00
39897;BME280;25567;48.276;14.242;2023-02-19T04:19:11;98527.00;;;8.67;100.00
39897;BME280;25567;48.276;14.242;2023-02-19T04:21:41;98530.22;;;8.70;100.00
39897;BME280;25567;48.276;14.242;2023-02-19T04:24:16;98531.03;;;8.70;100.00
39897;BME280;25567;48.276;14.242;2023-02-19T04:26:46;98525.72;;;8.77;100.00
39897;BME280;25567;48.276;14.242;2023-02-19T04:29:15;98518.41;;;8.72;100.00
39897;BME280;25567;48.276;14.242;2023-02-19T04:31:43;98515.97;;;8.71;100.00
39897;BME280;25567;48.276;14.242;2023-02-19T04:34:10;98522.28;;;8.70;100.00
39897;BME280;25567;48.276;14.242;2023-02-19T04:36:37;98524.53;;;8.73;100.00
39897;BME280;25567;48.276;14.242;2023-02-19T04:39:06;98520.59;;;8.75;100.00
39897;BME280;25567;48.276;14.242;2023-02-19T04:41:34;98515.53;;;8.74;100.00
39897;BME280;25567;48.276;14.242;2023-02-19T04:44:03;98520.19;;;8.78;100.00
39897;BME280;25567;48.276;14.242;2023-02-19T04:46:31;98516.66;;;8.84;100.00
39897;BME280;25567;48.276;14.242;2023-02-19T04:48:59;98512.44;;;8.83;100.00
39897;BME280;25567;48.276;14.242;2023-02-19T04:51:26;98507.78;;;8.79;100.00
39897;BME280;25567;48.276;14.242;2023-02-19T04:53:55;98501.41;;;8.87;100.00
39897;BME280;25567;48.276;14.242;2023-02-19T04:56:23;98497.59;;;8.82;100.00
39897;BME280;25567;48.276;14.242;2023-02-19T04:58:50;98490.19;;;8.91;100.00
39897;BME280;25567;48.276;14.242;2023-02-19T05:01:19;98493.63;;;8.92;100.00
39897;BME280;25567;48.276;14.242;2023-02-19T05:03:48;98485.31;;;8.88;100.00
39897;BME280;25567;48.276;14.242;2023-02-19T05:06:15;98482.09;;;8.86;100.00
39897;BME280;25567;48.276;14.242;2023-02-19T05:08:44;98487.28;;;8.99;100.00
39897;BME280;25567;48.276;14.242;2023-02-19T05:11:12;98489.31;;;8.97;100.00
39897;BME280;25567;48.276;14.242;2023-02-19T05:13:40;98483.16;;;9.04;100.00
39897;BME280;25567;48.276;14.242;2023-02-19T05:16:11;98491.03;;;9.10;100.00
39897;BME280;25567;48.276;14.242;2023-02-19T05:18:40;98496.44;;;9.22;100.00
39897;BME280;25567;48.276;14.242;2023-02-19T05:21:08;98494.97;;;9.26;100.00
39897;BME280;25567;48.276;14.242;2023-02-19T05:23:37;98489.00;;;9.31;100.00
39897;BME280;25567;48.276;14.242;2023-02-19T05:26:06;98488.19;;;9.30;100.00
39897;BME280;25567;48.276;14.242;2023-02-19T05:28:33;98484.53;;;9.31;100.00
39897;BME280;25567;48.276;14.242;2023-02-19T05:31:05;98492.31;;;9.26;100.00
39897;BME280;25567;48.276;14.242;2023-02-19T05:33:34;98494.88;;;9.33;100.00
39897;BME280;25567;48.276;14.242;2023-02-19T05:36:06;98491.00;;;9.35;100.00
39897;BME280;25567;48.276;14.242;2023-02-19T05:38:34;98500.34;;;9.38;100.00
39897;BME280;25567;48.276;14.242;2023-02-19T05:41:18;98490.41;;;9.33;100.00
39897;BME280;25567;48.276;14.242;2023-02-19T05:43:47;98491.88;;;9.29;100.00
39897;BME280;25567;48.276;14.242;2023-02-19T05:46:16;98488.63;;;9.27;100.00
39897;BME280;25567;48.276;14.242;2023-02-19T05:48:47;98498.63;;;9.25;100.00
39897;BME280;25567;48.276;14.242;2023-02-19T05:51:18;98503.28;;;9.30;100.00
39897;BME280;25567;48.276;14.242;2023-02-19T05:53:48;98498.78;;;9.30;100.00
39897;BME280;25567;48.276;14.242;2023-02-19T05:58:54;98498.78;;;9.30;100.00
39897;BME280;25567;48.276;14.242;2023-02-19T06:01:23;98501.72;;;9.22;100.00
39897;BME280;25567;48.276;14.242;2023-02-19T06:03:52;98511.84;;;9.25;100.00
39897;BME280;25567;48.276;14.242;2023-02-19T06:06:24;98511.47;;;9.22;100.00
39897;BME280;25567;48.276;14.242;2023-02-19T06:08:53;98518.22;;;9.17;100.00
39897;BME280;25567;48.276;14.242;2023-02-19T06:11:23;98510.47;;;9.23;100.00
39897;BME280;25567;48.276;14.242;2023-02-19T06:13:53;98515.53;;;9.24;100.00
39897;BME280;25567;48.276;14.242;2023-02-19T06:16:21;98516.72;;;9.28;100.00
39897;BME280;25567;48.276;14.242;2023-02-19T06:18:51;98530.59;;;9.24;100.00
39897;BME280;25567;48.276;14.242;2023-02-19T06:21:19;98533.03;;;9.25;100.00
39897;BME280;25567;48.276;14.242;2023-02-19T06:23:47;98526.50;;;9.28;100.00
39897;BME280;25567;48.276;14.242;2023-02-19T06:26:20;98524.88;;;9.27;100.00
39897;BME280;25567;48.276;14.242;2023-02-19T06:28:51;98533.69;;;9.21;100.00
39897;BME280;25567;48.276;14.242;2023-02-19T06:31:20;98537.59;;;9.18;100.00
39897;BME280;25567;48.276;14.242;2023-02-19T06:33:49;98537.53;;;9.25;100.00
39897;BME280;25567;48.276;14.242;2023-02-19T06:36:22;98541.56;;;9.27;100.00
39897;BME280;25567;48.276;14.242;2023-02-19T06:38:50;98549.34;;;9.22;100.00
39897;BME280;25567;48.276;14.242;2023-02-19T06:41:17;98546.94;;;9.21;100.00
39897;BME280;25567;48.276;14.242;2023-02-19T06:43:45;98551.03;;;9.16;100.00
39897;BME280;25567;48.276;14.242;2023-02-19T06:46:12;98546.09;;;9.20;100.00
39897;BME280;25567;48.276;14.242;2023-02-19T06:48:42;98543.63;;;9.25;100.00
39897;BME280;25567;48.276;14.242;2023-02-19T06:51:12;98567.22;;;9.27;100.00
39897;BME280;25567;48.276;14.242;2023-02-19T06:53:40;98566.59;;;9.31;100.00
39897;BME280;25567;48.276;14.242;2023-02-19T06:56:25;98568.41;;;9.31;100.00
39897;BME280;25567;48.276;14.242;2023-02-19T06:58:56;98568.25;;;9.26;100.00
39897;BME280;25567;48.276;14.242;2023-02-19T07:01:27;98562.47;;;9.35;100.00
39897;BME280;25567;48.276;14.242;2023-02-19T07:03:55;98562.91;;;9.32;100.00
39897;BME280;25567;48.276;14.242;2023-02-19T07:06:26;98572.28;;;9.28;100.00
39897;BME280;25567;48.276;14.242;2023-02-19T07:08:56;98569.44;;;9.30;100.00
39897;BME280;25567;48.276;14.242;2023-02-19T07:11:25;98567.97;;;9.34;100.00
39897;BME280;25567;48.276;14.242;2023-02-19T07:13:58;98574.75;;;9.30;100.00
39897;BME280;25567;48.276;14.242;2023-02-19T07:16:26;98578.56;;;9.34;100.00
39897;BME280;25567;48.276;14.242;2023-02-19T07:18:57;98580.63;;;9.32;100.00
39897;BME280;25567;48.276;14.242;2023-02-19T07:21:26;98582.69;;;9.30;100.00
39897;BME280;25567;48.276;14.242;2023-02-19T07:23:54;98584.94;;;9.26;100.00
39897;BME280;25567;48.276;14.242;2023-02-19T07:26:23;98571.94;;;9.25;100.00
39897;BME280;25567;48.276;14.242;2023-02-19T07:28:51;98578.97;;;9.31;100.00
39897;BME280;25567;48.276;14.242;2023-02-19T07:31:22;98578.63;;;9.27;100.00
39897;BME280;25567;48.276;14.242;2023-02-19T07:33:53;98577.56;;;9.35;100.00
39897;BME280;25567;48.276;14.242;2023-02-19T07:36:23;98581.16;;;9.41;100.00
39897;BME280;25567;48.276;14.242;2023-02-19T07:38:54;98586.28;;;9.35;100.00
39897;BME280;25567;48.276;14.242;2023-02-19T07:41:23;98581.16;;;9.41;100.00
39897;BME280;25567;48.276;14.242;2023-02-19T07:43:51;98588.22;;;9.47;99.85
39897;BME280;25567;48.276;14.242;2023-02-19T07:46:20;98596.75;;;9.49;99.66
39897;BME280;25567;48.276;14.242;2023-02-19T07:48:49;98586.78;;;9.51;99.22
39897;BME280;25567;48.276;14.242;2023-02-19T07:51:18;98585.72;;;9.52;99.39
39897;BME280;25567;48.276;14.242;2023-02-19T07:53:49;98584.75;;;9.46;99.59
39897;BME280;25567;48.276;14.242;2023-02-19T07:56:20;98594.66;;;9.58;99.56
39897;BME280;25567;48.276;14.242;2023-02-19T07:58:49;98593.88;;;9.50;99.88
39897;BME280;25567;48.276;14.242;2023-02-19T08:01:22;98588.59;;;9.50;100.00
39897;BME280;25567;48.276;14.242;2023-02-19T08:04:12;98594.16;;;9.42;100.00
39897;BME280;25567;48.276;14.242;2023-02-19T08:06:40;98602.28;;;9.47;100.00
39897;BME280;25567;48.276;14.242;2023-02-19T08:09:08;98606.63;;;9.42;100.00
39897;BME280;25567;48.276;14.242;2023-02-19T08:11:36;98608.00;;;9.44;100.00
39897;BME280;25567;48.276;14.242;2023-02-19T08:14:23;98620.44;;;9.44;100.00
39897;BME280;25567;48.276;14.242;2023-02-19T08:16:53;98614.34;;;9.43;100.00
39897;BME280;25567;48.276;14.242;2023-02-19T08:19:21;98619.47;;;9.38;100.00
39897;BME280;25567;48.276;14.242;2023-02-19T08:21:50;98617.34;;;9.47;100.00
39897;BME280;25567;48.276;14.242;2023-02-19T08:24:20;98622.50;;;9.42;100.00
39897;BME280;25567;48.276;14.242;2023-02-19T08:26:49;98623.34;;;9.35;100.00
39897;BME280;25567;48.276;14.242;2023-02-19T08:29:18;98628.47;;;9.30;100.00
39897;BME280;25567;48.276;14.242;2023-02-19T08:31:45;98629.19;;;9.19;100.00
39897;BME280;25567;48.276;14.242;2023-02-19T08:34:13;98633.25;;;9.15;100.00
39897;BME280;25567;48.276;14.242;2023-02-19T08:36:41;98647.78;;;9.06;100.00
39897;BME280;25567;48.276;14.242;2023-02-19T08:39:11;98647.94;;;9.11;100.00
39897;BME280;25567;48.276;14.242;2023-02-19T08:41:40;98659.16;;;9.13;100.00
39897;BME280;25567;48.276;14.242;2023-02-19T08:44:08;98663.03;;;9.10;100.00
39897;BME280;25567;48.276;14.242;2023-02-19T08:46:34;98662.91;;;8.98;100.00
39897;BME280;25567;48.276;14.242;2023-02-19T08:49:01;98663.53;;;8.94;100.00
39897;BME280;25567;48.276;14.242;2023-02-19T08:51:29;98663.75;;;8.92;100.00
39897;BME280;25567;48.276;14.242;2023-02-19T08:53:57;98663.97;;;8.91;100.00
39897;BME280;25567;48.276;14.242;2023-02-19T08:56:27;98651.59;;;8.78;100.00
39897;BME280;25567;48.276;14.242;2023-02-19T08:58:56;98659.72;;;8.83;98.88
39897;BME280;25567;48.276;14.242;2023-02-19T09:01:26;98654.69;;;8.75;97.91
39897;BME280;25567;48.276;14.242;2023-02-19T09:03:55;98656.31;;;8.76;97.54
39897;BME280;25567;48.276;14.242;2023-02-19T09:06:23;98671.56;;;8.74;98.86
39897;BME280;25567;48.276;14.242;2023-02-19T09:08:51;98672.44;;;8.67;98.63
39897;BME280;25567;48.276;14.242;2023-02-19T09:11:20;98672.44;;;8.67;99.07
39897;BME280;25567;48.276;14.242;2023-02-19T09:13:49;98664.69;;;8.73;99.47
39897;BME280;25567;48.276;14.242;2023-02-19T09:16:18;98655.47;;;8.75;100.00
39897;BME280;25567;48.276;14.242;2023-02-19T09:18:47;98668.69;;;8.82;100.00
39897;BME280;25567;48.276;14.242;2023-02-19T09:21:14;98665.59;;;8.92;100.00
39897;BME280;25567;48.276;14.242;2023-02-19T09:23:42;98654.91;;;9.05;100.00
39897;BME280;25567;48.276;14.242;2023-02-19T09:26:09;98652.19;;;9.18;100.00
39897;BME280;25567;48.276;14.242;2023-02-19T09:28:38;98655.75;;;9.31;100.00
39897;BME280;25567;48.276;14.242;2023-02-19T09:31:11;98667.13;;;9.38;100.00
39897;BME280;25567;48.276;14.242;2023-02-19T09:33:42;98672.94;;;9.47;100.00
39897;BME280;25567;48.276;14.242;2023-02-19T09:36:11;98673.72;;;9.54;99.66
39897;BME280;25567;48.276;14.242;2023-02-19T09:38:40;98679.97;;;9.60;98.84
39897;BME280;25567;48.276;14.242;2023-02-19T09:43:59;98684.19;;;9.67;96.45
39897;BME280;25567;48.276;14.242;2023-02-19T09:51:48;98688.28;;;9.89;94.48
39897;BME280;25567;48.276;14.242;2023-02-19T09:54:21;98682.75;;;9.90;91.74
39897;BME280;25567;48.276;14.242;2023-02-19T09:56:52;98696.34;;;10.00;91.52
39897;BME280;25567;48.276;14.242;2023-02-19T09:59:39;98692.44;;;10.03;90.80
39897;BME280;25567;48.276;14.242;2023-02-19T10:02:16;98698.13;;;10.07;89.34
39897;BME280;25567;48.276;14.242;2023-02-19T10:04:50;98696.66;;;10.11;89.78
39897;BME280;25567;48.276;14.242;2023-02-19T10:09:56;98701.34;;;10.09;89.13
39897;BME280;25567;48.276;14.242;2023-02-19T10:12:28;98702.97;;;10.10;87.77
39897;BME280;25567;48.276;14.242;2023-02-19T10:15:04;98707.03;;;10.12;87.23
39897;BME280;25567;48.276;14.242;2023-02-19T10:17:34;98709.69;;;10.12;87.22
39897;BME280;25567;48.276;14.242;2023-02-19T10:20:03;98714.63;;;10.27;87.38
39897;BME280;25567;48.276;14.242;2023-02-19T10:22:34;98705.53;;;10.42;88.13
39897;BME280;25567;48.276;14.242;2023-02-19T10:25:03;98701.91;;;10.55;87.11
39897;BME280;25567;48.276;14.242;2023-02-19T10:27:31;98708.88;;;10.67;85.86
39897;BME280;25567;48.276;14.242;2023-02-19T10:30:03;98723.63;;;10.82;83.20
39897;BME280;25567;48.276;14.242;2023-02-19T10:32:31;98720.22;;;10.93;84.22
39897;BME280;25567;48.276;14.242;2023-02-19T10:35:09;98737.69;;;11.01;81.87
39897;BME280;25567;48.276;14.242;2023-02-19T10:37:48;98719.81;;;11.08;81.48
39897;BME280;25567;48.276;14.242;2023-02-19T10:40:19;98715.28;;;11.27;82.67
39897;BME280;25567;48.276;14.242;2023-02-19T10:42:52;98720.53;;;11.46;82.59
39897;BME280;25567;48.276;14.242;2023-02-19T10:45:27;98712.22;;;11.54;79.54
39897;BME280;25567;48.276;14.242;2023-02-19T10:47:59;98719.22;;;11.48;79.13
39897;BME280;25567;48.276;14.242;2023-02-19T10:50:34;98724.22;;;11.45;79.35
39897;BME280;25567;48.276;14.242;2023-02-19T10:53:20;98711.81;;;11.39;79.08
39897;BME280;25567;48.276;14.242;2023-02-19T10:56:06;98715.97;;;11.34;80.33
39897;BME280;25567;48.276;14.242;2023-02-19T10:58:35;98716.88;;;11.28;79.50
39897;BME280;25567;48.276;14.242;2023-02-19T11:01:21;98709.00;;;11.22;79.67
39897;BME280;25567;48.276;14.242;2023-02-19T11:04:13;98727.69;;;11.15;78.46
39897;BME280;25567;48.276;14.242;2023-02-19T11:06:42;98730.78;;;11.12;78.51
39897;BME280;25567;48.276;14.242;2023-02-19T11:09:28;98720.13;;;11.00;76.83
39897;BME280;25567;48.276;14.242;2023-02-19T11:12:00;98738.56;;;10.95;78.15
39897;BME280;25567;48.276;14.242;2023-02-19T11:14:34;98728.25;;;10.87;78.13
39897;BME280;25567;48.276;14.242;2023-02-19T11:17:04;98726.19;;;10.89;78.40
39897;BME280;25567;48.276;14.242;2023-02-19T11:19:43;98738.59;;;10.76;80.35
39897;BME280;25567;48.276;14.242;2023-02-19T11:22:31;98723.78;;;10.68;82.02
39897;BME280;25567;48.276;14.242;2023-02-19T11:25:20;98734.25;;;10.63;81.75
39897;BME280;25567;48.276;14.242;2023-02-19T11:30:45;98731.50;;;10.51;81.53
39897;BME280;25567;48.276;14.242;2023-02-19T11:35:46;98736.75;;;10.40;84.29
39897;BME280;25567;48.276;14.242;2023-02-19T11:38:17;98738.31;;;10.22;85.78
39897;BME280;25567;48.276;14.242;2023-02-19T11:46:37;98756.72;;;10.17;87.10
39897;BME280;25567;48.276;14.242;2023-02-19T12:09:50;98727.84;;;9.58;91.69
39897;BME280;25567;48.276;14.242;2023-02-19T12:27:00;98723.06;;;9.99;89.16
39897;BME280;25567;48.276;14.242;2023-02-19T12:32:25;98725.34;;;10.14;88.69
39897;BME280;25567;48.276;14.242;2023-02-19T12:35:29;98730.53;;;10.27;89.21
39897;BME280;25567;48.276;14.242;2023-02-19T12:38:18;98731.28;;;10.34;88.73
39897;BME280;25567;48.276;14.242;2023-02-19T12:43:24;98736.31;;;10.43;84.92
39897;BME280;25567;48.276;14.242;2023-02-19T12:48:46;98733.22;;;10.64;84.62
39897;BME280;25567;48.276;14.242;2023-02-19T12:54:25;98737.78;;;10.76;82.64
39897;BME280;25567;48.276;14.242;2023-02-19T12:57:13;98720.63;;;10.78;81.50
39897;BME280;25567;48.276;14.242;2023-02-19T12:59:59;98730.03;;;10.74;81.03
39897;BME280;25567;48.276;14.242;2023-02-19T13:02:48;98734.69;;;10.79;80.68
39897;BME280;25567;48.276;14.242;2023-02-19T13:08:14;98737.88;;;10.69;78.48
39897;BME280;25567;48.276;14.242;2023-02-19T13:10:55;98741.31;;;10.70;79.49
39897;BME280;25567;48.276;14.242;2023-02-19T13:13:33;98762.41;;;10.64;78.29
39897;BME280;25567;48.276;14.242;2023-02-19T13:16:05;98754.28;;;10.59;78.15
39897;BME280;25567;48.276;14.242;2023-02-19T13:18:41;98756.13;;;10.59;76.98
39897;BME280;25567;48.276;14.242;2023-02-19T13:21:12;98756.59;;;10.56;77.32
39897;BME280;25567;48.276;14.242;2023-02-19T13:24:04;98750.59;;;10.60;77.65
39897;BME280;25567;48.276;14.242;2023-02-19T13:26:57;98757.63;;;10.55;77.55
39897;BME280;25567;48.276;14.242;2023-02-19T13:32:39;98749.22;;;10.58;77.02
39897;BME280;25567;48.276;14.242;2023-02-19T13:35:27;98769.41;;;10.59;74.94
39897;BME280;25567;48.276;14.242;2023-02-19T13:38:08;98772.06;;;10.59;74.32
39897;BME280;25567;48.276;14.242;2023-02-19T13:40:40;98755.31;;;10.58;72.70
39897;BME280;25567;48.276;14.242;2023-02-19T13:45:58;98765.56;;;10.73;73.01
39897;BME280;25567;48.276;14.242;2023-02-19T13:48:30;98769.31;;;10.65;73.49
39897;BME280;25567;48.276;14.242;2023-02-19T13:53:57;98768.66;;;10.70;73.66
39897;BME280;25567;48.276;14.242;2023-02-19T13:56:35;98760.03;;;10.75;73.13
39897;BME280;25567;48.276;14.242;2023-02-19T13:59:25;98749.72;;;10.66;72.69
39897;BME280;25567;48.276;14.242;2023-02-19T14:04:48;98757.09;;;10.64;72.35
39897;BME280;25567;48.276;14.242;2023-02-19T14:07:32;98773.00;;;10.64;72.70
39897;BME280;25567;48.276;14.242;2023-02-19T14:10:02;98764.25;;;10.64;72.49
39897;BME280;25567;48.276;14.242;2023-02-19T14:12:33;98771.53;;;10.68;72.06
39897;BME280;25567;48.276;14.242;2023-02-19T14:18:00;98773.22;;;10.63;72.38
39897;BME280;25567;48.276;14.242;2023-02-19T14:20:45;98764.31;;;10.57;73.22
39897;BME280;25567;48.276;14.242;2023-02-19T14:23:16;98778.31;;;10.64;72.63
39897;BME280;25567;48.276;14.242;2023-02-19T14:25:53;98773.00;;;10.64;71.89
39897;BME280;25567;48.276;14.242;2023-02-19T14:28:30;98777.50;;;10.64;71.81
39897;BME280;25567;48.276;14.242;2023-02-19T14:31:28;98782.22;;;10.62;71.69
39897;BME280;25567;48.276;14.242;2023-02-19T14:39:18;98789.00;;;10.58;71.79
39897;BME280;25567;48.276;14.242;2023-02-19T14:41:53;98796.72;;;10.59;70.62
39897;BME280;25567;48.276;14.242;2023-02-19T14:44:29;98776.91;;;10.62;70.07
39897;BME280;25567;48.276;14.242;2023-02-19T14:47:12;98796.50;;;10.61;70.03
39897;BME280;25567;48.276;14.242;2023-02-19T14:49:44;98798.88;;;10.50;70.95
39897;BME280;25567;48.276;14.242;2023-02-19T14:55:02;98792.31;;;10.53;71.70
39897;BME280;25567;48.276;14.242;2023-02-19T14:57:38;98794.13;;;10.52;71.61
39897;BME280;25567;48.276;14.242;2023-02-19T15:00:27;98795.03;;;10.46;71.30
39897;BME280;25567;48.276;14.242;2023-02-19T15:02:57;98802.78;;;10.48;71.13
39897;BME280;25567;48.276;14.242;2023-02-19T15:05:29;98800.53;;;10.45;71.74
39897;BME280;25567;48.276;14.242;2023-02-19T15:08:00;98801.44;;;10.39;71.94
39897;BME280;25567;48.276;14.242;2023-02-19T15:10:30;98810.56;;;10.43;71.34
39897;BME280;25567;48.276;14.242;2023-02-19T15:13:02;98805.94;;;10.31;72.25
39897;BME280;25567;48.276;14.242;2023-02-19T15:15:35;98810.81;;;10.34;72.10
39897;BME280;25567;48.276;14.242;2023-02-19T15:18:04;98813.28;;;10.36;72.39
39897;BME280;25567;48.276;14.242;2023-02-19T15:20:36;98818.16;;;10.32;73.07
39897;BME280;25567;48.276;14.242;2023-02-19T15:23:05;98819.41;;;10.30;72.27